sensor_id;sensor_type;location;lat;lon;timestamp;pressure;altitude;pressure_sealevel;temperature;humidity
28344;BME280;15597;50.914;6.638;2023-04-19T00:00:26;101740.38;;;16.31;45.89
28344;BME280;15597;50.914;6.638;2023-04-19T00:02:52;101745.56;;;16.34;45.94
28344;BME280;15597;50.914;6.638;2023-04-19T00:05:18;101746.41;;;16.34;45.72
28344;BME280;15597;50.914;6.638;2023-04-19T00:07:46;101751.25;;;16.18;45.97
28344;BME280;15597;50.914;6.638;2023-04-19T00:10:12;101744.09;;;16.24;45.98
28344;BME280;15597;50.914;6.638;2023-04-19T00:12:37;101747.56;;;16.26;45.86
28344;BME280;15597;50.914;6.638;2023-04-19T00:15:04;101737.81;;;16.28;45.87
28344;BME280;15597;50.914;6.638;2023-04-19T00:17:30;101739.47;;;16.32;45.92
28344;BME280;15597;50.914;6.638;2023-04-19T00:19:56;101739.41;;;16.33;45.61
28344;BME280;15597;50.914;6.638;2023-04-19T00:22:22;101743.84;;;16.33;45.71
28344;BME280;15597;50.914;6.638;2023-04-19T00:24:48;101740.28;;;16.34;45.71
28344;BME280;15597;50.914;6.638;2023-04-19T00:27:13;101738.47;;;16.36;45.70
28344;BME280;15597;50.914;6.638;2023-04-19T00:29:39;101731.44;;;16.35;45.76
28344;BME280;15597;50.914;6.638;2023-04-19T00:32:04;101736.72;;;16.35;45.79
28344;BME280;15597;50.914;6.638;2023-04-19T00:34:30;101731.44;;;16.35;45.65
28344;BME280;15597;50.914;6.638;2023-04-19T00:36:56;101732.28;;;16.37;45.79
28344;BME280;15597;50.914;6.638;2023-04-19T00:39:22;101732.22;;;16.39;45.79
28344;BME280;15597;50.914;6.638;2023-04-19T00:41:48;101737.56;;;16.37;45.90
28344;BME280;15597;50.914;6.638;2023-04-19T00:44:13;101727.00;;;16.37;45.82
28344;BME280;15597;50.914;6.638;2023-04-19T00:46:39;101725.25;;;16.36;45.86
28344;BME280;15597;50.914;6.638;2023-04-19T00:49:05;101726.16;;;16.35;45.84
28344;BME280;15597;50.914;6.638;2023-04-19T00:51:32;101727.06;;;16.34;45.91
28344;BME280;15597;50.914;6.638;2023-04-19T00:53:57;101733.28;;;16.33;45.94
28344;BME280;15597;50.914;6.638;2023-04-19T00:56:25;101726.34;;;16.29;46.02
28344;BME280;15597;50.914;6.638;2023-04-19T00:58:52;101728.56;;;16.11;46.16
28344;BME280;15597;50.914;6.638;2023-04-19T01:01:18;101732.97;;;16.11;46.19
28344;BME280;15597;50.914;6.638;2023-04-19T01:03:45;101734.69;;;16.12;46.26
28344;BME280;15597;50.914;6.638;2023-04-19T01:06:11;101726.75;;;16.13;46.16
28344;BME280;15597;50.914;6.638;2023-04-19T01:08:40;101724.06;;;16.15;46.24
28344;BME280;15597;50.914;6.638;2023-04-19T01:11:06;101719.75;;;16.12;46.19
28344;BME280;15597;50.914;6.638;2023-04-19T01:13:32;101717.13;;;16.11;46.05
28344;BME280;15597;50.914;6.638;2023-04-19T01:15:59;101719.81;;;16.09;46.27
28344;BME280;15597;50.914;6.638;2023-04-19T01:18:25;101708.44;;;16.07;46.17
28344;BME280;15597;50.914;6.638;2023-04-19T01:20:53;101714.63;;;16.06;46.29
28344;BME280;15597;50.914;6.638;2023-04-19T01:23:20;101712.91;;;16.05;46.41
28344;BME280;15597;50.914;6.638;2023-04-19T01:25:47;101717.28;;;16.04;45.67
28344;BME280;15597;50.914;6.638;2023-04-19T01:28:14;101712.97;;;16.02;46.38
28344;BME280;15597;50.914;6.638;2023-04-19T01:30:42;101711.25;;;16.01;46.30
28344;BME280;15597;50.914;6.638;2023-04-19T01:33:07;101719.09;;;16.02;46.35
28344;BME280;15597;50.914;6.638;2023-04-19T01:35:33;101705.06;;;16.02;46.48
28344;BME280;15597;50.914;6.638;2023-04-19T01:37:58;101712.97;;;16.02;46.29
28344;BME280;15597;50.914;6.638;2023-04-19T01:40:25;101718.25;;;16.02;46.27
28344;BME280;15597;50.914;6.638;2023-04-19T01:42:51;101702.34;;;16.05;46.28
28344;BME280;15597;50.914;6.638;2023-04-19T01:45:17;101704.06;;;16.06;46.48
28344;BME280;15597;50.914;6.638;2023-04-19T01:47:43;101702.34;;;16.05;46.45
28344;BME280;15597;50.914;6.638;2023-04-19T01:50:09;101689.13;;;16.05;46.33
28344;BME280;15597;50.914;6.638;2023-04-19T01:52:34;101707.63;;;16.05;46.36
28344;BME280;15597;50.914;6.638;2023-04-19T01:55:00;101695.31;;;16.04;46.31
28344;BME280;15597;50.914;6.638;2023-04-19T01:57:26;101699.72;;;16.03;46.24
28344;BME280;15597;50.914;6.638;2023-04-19T01:59:52;101691.94;;;15.99;46.33
28344;BME280;15597;50.914;6.638;2023-04-19T02:02:18;101697.38;;;15.93;46.35
28344;BME280;15597;50.914;6.638;2023-04-19T02:04:44;101686.94;;;15.88;46.35
28344;BME280;15597;50.914;6.638;2023-04-19T02:07:10;101691.34;;;15.86;46.49
28344;BME280;15597;50.914;6.638;2023-04-19T02:09:37;101686.09;;;15.84;46.33
28344;BME280;15597;50.914;6.638;2023-04-19T02:12:03;101687.84;;;15.85;46.44
28344;BME280;15597;50.914;6.638;2023-04-19T02:14:29;101694.00;;;15.84;46.25
28344;BME280;15597;50.914;6.638;2023-04-19T02:16:55;101688.81;;;15.81;46.58
28344;BME280;15597;50.914;6.638;2023-04-19T02:19:20;101688.03;;;15.77;46.63
28344;BME280;15597;50.914;6.638;2023-04-19T02:21:47;101688.97;;;15.75;46.66
28344;BME280;15597;50.914;6.638;2023-04-19T02:24:13;101680.22;;;15.73;46.67
28344;BME280;15597;50.914;6.638;2023-04-19T02:26:39;101680.38;;;15.67;46.73
28344;BME280;15597;50.914;6.638;2023-04-19T02:29:05;101684.91;;;15.61;46.86
28344;BME280;15597;50.914;6.638;2023-04-19T02:31:30;101691.22;;;15.56;47.09
28344;BME280;15597;50.914;6.638;2023-04-19T02:33:56;101685.28;;;15.47;47.20
28344;BME280;15597;50.914;6.638;2023-04-19T02:36:21;101680.19;;;15.40;47.33
28344;BME280;15597;50.914;6.638;2023-04-19T02:38:47;101690.88;;;15.33;47.50
28344;BME280;15597;50.914;6.638;2023-04-19T02:41:12;101692.78;;;15.27;47.56
28344;BME280;15597;50.914;6.638;2023-04-19T02:43:38;101681.53;;;15.20;47.82
28344;BME280;15597;50.914;6.638;2023-04-19T02:46:04;101684.31;;;15.14;48.03
28344;BME280;15597;50.914;6.638;2023-04-19T02:48:30;101685.28;;;15.10;47.99
28344;BME280;15597;50.914;6.638;2023-04-19T02:50:56;101687.09;;;15.08;48.24
28344;BME280;15597;50.914;6.638;2023-04-19T02:53:22;101684.47;;;15.06;48.44
28344;BME280;15597;50.914;6.638;2023-04-19T02:55:48;101683.63;;;15.06;48.47
28344;BME280;15597;50.914;6.638;2023-04-19T02:58:17;101683.63;;;15.06;48.33
28344;BME280;15597;50.914;6.638;2023-04-19T03:01:15;101683.69;;;15.02;48.66
28344;BME280;15597;50.914;6.638;2023-04-19T03:03:41;101678.47;;;14.99;49.38
28344;BME280;15597;50.914;6.638;2023-04-19T03:06:06;101678.47;;;14.99;48.52
28344;BME280;15597;50.914;6.638;2023-04-19T03:08:32;101680.28;;;14.97;48.73
28344;BME280;15597;50.914;6.638;2023-04-19T03:10:58;101672.41;;;14.96;48.86
28344;BME280;15597;50.914;6.638;2023-04-19T03:13:23;101679.47;;;14.95;49.01
28344;BME280;15597;50.914;6.638;2023-04-19T03:15:49;101685.56;;;14.97;48.89
28344;BME280;15597;50.914;6.638;2023-04-19T03:18:18;101682.09;;;14.95;49.12
28344;BME280;15597;50.914;6.638;2023-04-19T03:20:45;101681.19;;;14.96;49.09
28344;BME280;15597;50.914;6.638;2023-04-19T03:23:10;101678.56;;;14.96;49.05
28344;BME280;15597;50.914;6.638;2023-04-19T03:25:36;101676.81;;;14.95;49.10
28344;BME280;15597;50.914;6.638;2023-04-19T03:28:20;101675.94;;;14.95;49.13
28344;BME280;15597;50.914;6.638;2023-04-19T03:31:05;101675.09;;;14.94;49.38
28344;BME280;15597;50.914;6.638;2023-04-19T03:33:31;101662.81;;;14.93;49.30
28344;BME280;15597;50.914;6.638;2023-04-19T03:35:56;101660.19;;;14.92;49.42
28344;BME280;15597;50.914;6.638;2023-04-19T03:38:22;101663.72;;;14.90;49.58
28344;BME280;15597;50.914;6.638;2023-04-19T03:40:48;101655.88;;;14.89;49.97
28344;BME280;15597;50.914;6.638;2023-04-19T03:43:15;101663.84;;;14.86;49.90
28344;BME280;15597;50.914;6.638;2023-04-19T03:45:41;101662.94;;;14.87;49.97
28344;BME280;15597;50.914;6.638;2023-04-19T03:48:07;101656.81;;;14.86;49.87
28344;BME280;15597;50.914;6.638;2023-04-19T03:50:33;101661.16;;;14.87;50.03
28344;BME280;15597;50.914;6.638;2023-04-19T03:52:59;101653.25;;;14.87;50.31
28344;BME280;15597;50.914;6.638;2023-04-19T03:55:24;101656.81;;;14.86;50.18
28344;BME280;15597;50.914;6.638;2023-04-19T03:57:51;101650.69;;;14.86;50.22
28344;BME280;15597;50.914;6.638;2023-04-19T04:00:28;101653.34;;;14.83;50.32
28344;BME280;15597;50.914;6.638;2023-04-19T04:02:58;101651.66;;;14.80;50.34
28344;BME280;15597;50.914;6.638;2023-04-19T04:05:26;101650.84;;;14.77;50.32
28344;BME280;15597;50.914;6.638;2023-04-19T04:07:52;101652.66;;;14.74;50.09
28344;BME280;15597;50.914;6.638;2023-04-19T04:10:18;101658.81;;;14.75;50.21
28344;BME280;15597;50.914;6.638;2023-04-19T04:12:43;101658.88;;;14.72;50.44
28344;BME280;15597;50.914;6.638;2023-04-19T04:15:13;101657.13;;;14.69;50.50
28344;BME280;15597;50.914;6.638;2023-04-19T04:17:45;101658.09;;;14.65;50.63
28344;BME280;15597;50.914;6.638;2023-04-19T04:20:10;101649.34;;;14.63;50.89
28344;BME280;15597;50.914;6.638;2023-04-19T04:22:44;101654.75;;;14.57;50.58
28344;BME280;15597;50.914;6.638;2023-04-19T04:25:15;101658.22;;;14.59;50.49
28344;BME280;15597;50.914;6.638;2023-04-19T04:27:41;101666.97;;;14.61;51.05
28344;BME280;15597;50.914;6.638;2023-04-19T04:30:12;101666.97;;;14.61;50.93
28344;BME280;15597;50.914;6.638;2023-04-19T04:32:38;101665.16;;;14.63;51.08
28344;BME280;15597;50.914;6.638;2023-04-19T04:35:06;101665.16;;;14.63;50.90
28344;BME280;15597;50.914;6.638;2023-04-19T04:37:41;101666.91;;;14.64;51.10
28344;BME280;15597;50.914;6.638;2023-04-19T04:40:07;101663.34;;;14.65;51.02
28344;BME280;15597;50.914;6.638;2023-04-19T04:42:33;101660.72;;;14.65;50.81
28344;BME280;15597;50.914;6.638;2023-04-19T04:45:00;101665.06;;;14.68;51.09
28344;BME280;15597;50.914;6.638;2023-04-19T04:47:33;101670.38;;;14.66;51.22
28344;BME280;15597;50.914;6.638;2023-04-19T04:50:02;101662.41;;;14.71;51.15
28344;BME280;15597;50.914;6.638;2023-04-19T04:52:29;101661.47;;;14.73;51.16
28344;BME280;15597;50.914;6.638;2023-04-19T04:55:10;101665.22;;;14.60;51.08
28344;BME280;15597;50.914;6.638;2023-04-19T04:57:40;101663.44;;;14.62;51.48
28344;BME280;15597;50.914;6.638;2023-04-19T05:00:10;101667.72;;;14.66;51.55
28344;BME280;15597;50.914;6.638;2023-04-19T05:02:44;101666.16;;;14.57;51.33
28344;BME280;15597;50.914;6.638;2023-04-19T05:05:10;101669.47;;;14.67;51.31
28344;BME280;15597;50.914;6.638;2023-04-19T05:07:36;101678.94;;;14.78;51.00
28344;BME280;15597;50.914;6.638;2023-04-19T05:10:02;101666.53;;;14.83;50.95
28344;BME280;15597;50.914;6.638;2023-04-19T05:12:36;101669.91;;;14.89;50.84
28344;BME280;15597;50.914;6.638;2023-04-19T05:15:01;101668.94;;;14.94;51.18
28344;BME280;15597;50.914;6.638;2023-04-19T05:17:27;101665.38;;;14.96;50.91
28344;BME280;15597;50.914;6.638;2023-04-19T05:19:53;101672.38;;;14.97;51.00
28344;BME280;15597;50.914;6.638;2023-04-19T05:22:19;101668.88;;;14.97;51.05
28344;BME280;15597;50.914;6.638;2023-04-19T05:24:45;101673.22;;;14.99;50.91
28344;BME280;15597;50.914;6.638;2023-04-19T05:27:12;101674.03;;;15.01;51.08
28344;BME280;15597;50.914;6.638;2023-04-19T05:29:38;101671.34;;;15.04;50.91
28344;BME280;15597;50.914;6.638;2023-04-19T05:32:04;101666.84;;;15.08;51.00
28344;BME280;15597;50.914;6.638;2023-04-19T05:34:35;101659.78;;;15.10;51.15
28344;BME280;15597;50.914;6.638;2023-04-19T05:37:02;101665.03;;;15.12;50.71
28344;BME280;15597;50.914;6.638;2023-04-19T05:39:28;101658.84;;;15.13;50.86
28344;BME280;15597;50.914;6.638;2023-04-19T05:41:54;101661.44;;;15.14;50.72
28344;BME280;15597;50.914;6.638;2023-04-19T05:44:19;101655.31;;;15.14;50.89
28344;BME280;15597;50.914;6.638;2023-04-19T05:46:45;101642.16;;;15.12;50.75
28344;BME280;15597;50.914;6.638;2023-04-19T05:49:13;101648.31;;;15.13;50.89
28344;BME280;15597;50.914;6.638;2023-04-19T05:52:03;101651.00;;;15.10;51.12
28344;BME280;15597;50.914;6.638;2023-04-19T05:54:43;101643.19;;;15.07;50.98
28344;BME280;15597;50.914;6.638;2023-04-19T05:57:09;101648.44;;;15.07;50.97
28344;BME280;15597;50.914;6.638;2023-04-19T05:59:35;101655.44;;;15.08;51.37
28344;BME280;15597;50.914;6.638;2023-04-19T06:02:00;101657.25;;;15.06;51.35
28344;BME280;15597;50.914;6.638;2023-04-19T06:04:26;101658.09;;;15.08;51.20
28344;BME280;15597;50.914;6.638;2023-04-19T06:06:52;101660.72;;;15.08;51.56
28344;BME280;15597;50.914;6.638;2023-04-19T06:09:18;101662.47;;;15.07;51.34
28344;BME280;15597;50.914;6.638;2023-04-19T06:11:44;101659.00;;;15.07;51.22
28344;BME280;15597;50.914;6.638;2023-04-19T06:14:10;101658.09;;;15.06;51.12
28344;BME280;15597;50.914;6.638;2023-04-19T06:16:38;101664.34;;;15.03;51.20
28344;BME280;15597;50.914;6.638;2023-04-19T06:19:04;101665.25;;;15.01;51.36
28344;BME280;15597;50.914;6.638;2023-04-19T06:21:30;101659.22;;;14.97;50.96
28344;BME280;15597;50.914;6.638;2023-04-19T06:23:57;101662.69;;;14.98;51.20
28344;BME280;15597;50.914;6.638;2023-04-19T06:26:22;101661.84;;;14.97;51.21
28344;BME280;15597;50.914;6.638;2023-04-19T06:28:48;101660.19;;;14.93;51.32
28344;BME280;15597;50.914;6.638;2023-04-19T06:31:14;101662.81;;;14.93;51.40
28344;BME280;15597;50.914;6.638;2023-04-19T06:33:39;101659.28;;;14.94;51.35
28344;BME280;15597;50.914;6.638;2023-04-19T06:36:05;101662.81;;;14.93;51.08
28344;BME280;15597;50.914;6.638;2023-04-19T06:38:31;101661.94;;;14.93;50.92
28344;BME280;15597;50.914;6.638;2023-04-19T06:40:56;101655.81;;;14.92;50.79
28344;BME280;15597;50.914;6.638;2023-04-19T06:43:22;101654.06;;;14.91;50.86
28344;BME280;15597;50.914;6.638;2023-04-19T06:45:47;101653.19;;;14.90;51.07
28344;BME280;15597;50.914;6.638;2023-04-19T06:48:13;101646.25;;;14.88;50.86
28344;BME280;15597;50.914;6.638;2023-04-19T06:50:39;101653.25;;;14.87;50.89
28344;BME280;15597;50.914;6.638;2023-04-19T06:53:05;101649.78;;;14.87;50.73
28344;BME280;15597;50.914;6.638;2023-04-19T06:55:30;101657.63;;;14.88;50.73
28344;BME280;15597;50.914;6.638;2023-04-19T06:57:56;101655.88;;;14.89;50.81
28344;BME280;15597;50.914;6.638;2023-04-19T07:00:22;101660.25;;;14.90;50.60
28344;BME280;15597;50.914;6.638;2023-04-19T07:02:49;101660.25;;;14.88;50.39
28344;BME280;15597;50.914;6.638;2023-04-19T07:05:14;101658.50;;;14.89;50.35
28344;BME280;15597;50.914;6.638;2023-04-19T07:07:40;101652.34;;;14.90;50.12
28344;BME280;15597;50.914;6.638;2023-04-19T07:10:07;101660.19;;;14.92;50.17
28344;BME280;15597;50.914;6.638;2023-04-19T07:12:33;101651.38;;;14.93;50.52
28344;BME280;15597;50.914;6.638;2023-04-19T07:14:58;101656.63;;;14.94;50.54
28344;BME280;15597;50.914;6.638;2023-04-19T07:17:24;101660.06;;;14.98;50.13
28344;BME280;15597;50.914;6.638;2023-04-19T07:19:49;101653.81;;;15.02;49.99
28344;BME280;15597;50.914;6.638;2023-04-19T07:22:15;101655.53;;;15.04;50.30
28344;BME280;15597;50.914;6.638;2023-04-19T07:24:40;101649.41;;;15.02;50.01
28344;BME280;15597;50.914;6.638;2023-04-19T07:27:12;101653.78;;;15.03;49.91
28344;BME280;15597;50.914;6.638;2023-04-19T07:29:38;101650.25;;;15.04;49.80
28344;BME280;15597;50.914;6.638;2023-04-19T07:32:06;101650.19;;;15.06;49.73
28344;BME280;15597;50.914;6.638;2023-04-19T07:34:31;101651.03;;;15.08;49.58
28344;BME280;15597;50.914;6.638;2023-04-19T07:36:57;101652.75;;;15.11;49.62
28344;BME280;15597;50.914;6.638;2023-04-19T07:39:23;101642.97;;;15.14;49.35
28344;BME280;15597;50.914;6.638;2023-04-19T07:41:49;101654.28;;;15.19;49.32
28344;BME280;15597;50.914;6.638;2023-04-19T07:44:15;101646.28;;;15.24;49.50
28344;BME280;15597;50.914;6.638;2023-04-19T07:46:42;101646.13;;;15.30;49.48
28344;BME280;15597;50.914;6.638;2023-04-19T07:49:09;101644.25;;;15.36;49.15
28344;BME280;15597;50.914;6.638;2023-04-19T07:51:34;101643.25;;;15.40;49.15
28344;BME280;15597;50.914;6.638;2023-04-19T07:54:00;101645.75;;;15.46;48.86
28344;BME280;15597;50.914;6.638;2023-04-19T07:56:26;101645.59;;;15.52;48.69
28344;BME280;15597;50.914;6.638;2023-04-19T07:58:51;101639.31;;;15.56;48.47
28344;BME280;15597;50.914;6.638;2023-04-19T08:01:17;101640.06;;;15.61;48.45
28344;BME280;15597;50.914;6.638;2023-04-19T08:03:42;101644.38;;;15.66;48.36
28344;BME280;15597;50.914;6.638;2023-04-19T08:06:08;101637.19;;;15.71;48.09
28344;BME280;15597;50.914;6.638;2023-04-19T08:08:34;101637.09;;;15.75;47.99
28344;BME280;15597;50.914;6.638;2023-04-19T08:11:01;101631.66;;;15.80;47.97
28344;BME280;15597;50.914;6.638;2023-04-19T08:13:27;101621.84;;;15.85;47.72
28344;BME280;15597;50.914;6.638;2023-04-19T08:15:53;101625.22;;;15.94;47.85
28344;BME280;15597;50.914;6.638;2023-04-19T08:18:18;101633.03;;;15.97;47.74
28344;BME280;15597;50.914;6.638;2023-04-19T08:20:45;101629.44;;;15.99;47.03
28344;BME280;15597;50.914;6.638;2023-04-19T08:23:11;101639.06;;;16.02;47.06
28344;BME280;15597;50.914;6.638;2023-04-19T08:25:37;101632.78;;;16.06;47.17
28344;BME280;15597;50.914;6.638;2023-04-19T08:28:04;101627.25;;;16.15;46.91
28344;BME280;15597;50.914;6.638;2023-04-19T08:30:30;101618.25;;;16.21;46.81
28344;BME280;15597;50.914;6.638;2023-04-19T08:32:56;101629.53;;;16.28;46.92
28344;BME280;15597;50.914;6.638;2023-04-19T08:35:21;101619.63;;;16.34;46.80
28344;BME280;15597;50.914;6.638;2023-04-19T08:37:47;101621.28;;;16.39;46.54
28344;BME280;15597;50.914;6.638;2023-04-19T08:40:14;101617.63;;;16.43;46.42
28344;BME280;15597;50.914;6.638;2023-04-19T08:42:42;101614.88;;;16.47;46.49
28344;BME280;15597;50.914;6.638;2023-04-19T08:45:07;101611.22;;;16.52;46.40
28344;BME280;15597;50.914;6.638;2023-04-19T08:47:36;101608.47;;;16.56;46.31
28344;BME280;15597;50.914;6.638;2023-04-19T08:50:06;101609.31;;;16.57;45.95
28344;BME280;15597;50.914;6.638;2023-04-19T08:52:36;101611.84;;;16.60;45.89
28344;BME280;15597;50.914;6.638;2023-04-19T08:55:07;101614.41;;;16.63;45.65
28344;BME280;15597;50.914;6.638;2023-04-19T08:57:33;101604.56;;;16.68;45.46
28344;BME280;15597;50.914;6.638;2023-04-19T09:00:00;101598.38;;;16.69;45.52
28344;BME280;15597;50.914;6.638;2023-04-19T09:02:26;101600.09;;;16.70;45.35
28344;BME280;15597;50.914;6.638;2023-04-19T09:04:52;101600.91;;;16.72;45.22
28344;BME280;15597;50.914;6.638;2023-04-19T09:07:25;101600.00;;;16.73;45.17
28344;BME280;15597;50.914;6.638;2023-04-19T09:10:04;101596.44;;;16.74;45.25
28344;BME280;15597;50.914;6.638;2023-04-19T09:12:30;101600.63;;;16.82;44.86
28344;BME280;15597;50.914;6.638;2023-04-19T09:14:56;101589.03;;;16.86;45.12
28344;BME280;15597;50.914;6.638;2023-04-19T09:17:21;101594.13;;;16.92;44.86
28344;BME280;15597;50.914;6.638;2023-04-19T09:19:48;101591.38;;;16.95;44.35
28344;BME280;15597;50.914;6.638;2023-04-19T09:22:14;101589.50;;;17.00;44.34
28344;BME280;15597;50.914;6.638;2023-04-19T09:24:40;101585.84;;;17.04;44.17
28344;BME280;15597;50.914;6.638;2023-04-19T09:27:06;101584.84;;;17.08;44.05
28344;BME280;15597;50.914;6.638;2023-04-19T09:29:31;101585.56;;;17.14;43.27
28344;BME280;15597;50.914;6.638;2023-04-19T09:31:58;101582.69;;;17.20;42.97
28344;BME280;15597;50.914;6.638;2023-04-19T09:34:24;101578.16;;;17.23;42.33
28344;BME280;15597;50.914;6.638;2023-04-19T09:36:49;101585.94;;;17.28;42.19
28344;BME280;15597;50.914;6.638;2023-04-19T09:41:55;101576.88;;;17.35;42.02
28344;BME280;15597;50.914;6.638;2023-04-19T09:44:23;101570.56;;;17.40;41.50
28344;BME280;15597;50.914;6.638;2023-04-19T09:46:48;101573.91;;;17.45;41.24
28344;BME280;15597;50.914;6.638;2023-04-19T09:49:21;101565.88;;;17.48;41.14
28344;BME280;15597;50.914;6.638;2023-04-19T09:51:51;101563.13;;;17.51;40.86
28344;BME280;15597;50.914;6.638;2023-04-19T09:54:18;101565.38;;;17.36;41.56
28344;BME280;15597;50.914;6.638;2023-04-19T09:56:44;101565.22;;;17.41;40.82
28344;BME280;15597;50.914;6.638;2023-04-19T09:59:10;101565.06;;;17.46;40.31
28344;BME280;15597;50.914;6.638;2023-04-19T10:01:39;101557.03;;;17.49;40.05
28344;BME280;15597;50.914;6.638;2023-04-19T10:04:09;101566.66;;;17.51;39.57
28344;BME280;15597;50.914;6.638;2023-04-19T10:06:36;101557.69;;;17.56;39.60
28344;BME280;15597;50.914;6.638;2023-04-19T10:09:04;101548.72;;;17.60;39.79
28344;BME280;15597;50.914;6.638;2023-04-19T10:11:31;101553.00;;;17.62;39.06
28344;BME280;15597;50.914;6.638;2023-04-19T10:14:04;101546.78;;;17.65;39.22
28344;BME280;15597;50.914;6.638;2023-04-19T10:16:31;101550.97;;;17.71;38.79
28344;BME280;15597;50.914;6.638;2023-04-19T10:18:57;101554.31;;;17.76;38.96
28344;BME280;15597;50.914;6.638;2023-04-19T10:21:23;101550.63;;;17.80;38.91
28344;BME280;15597;50.914;6.638;2023-04-19T10:23:51;101546.94;;;17.84;38.75
28344;BME280;15597;50.914;6.638;2023-04-19T10:26:17;101548.56;;;17.88;38.97
28344;BME280;15597;50.914;6.638;2023-04-19T10:28:43;101545.69;;;17.94;38.25
28344;BME280;15597;50.914;6.638;2023-04-19T10:31:11;101543.84;;;17.96;38.57
28344;BME280;15597;50.914;6.638;2023-04-19T10:33:38;101544.63;;;17.99;37.97
28344;BME280;15597;50.914;6.638;2023-04-19T10:36:08;101546.38;;;18.00;38.24
28344;BME280;15597;50.914;6.638;2023-04-19T10:38:41;101544.47;;;18.05;37.70
28344;BME280;15597;50.914;6.638;2023-04-19T10:41:14;101538.81;;;18.14;37.84
28344;BME280;15597;50.914;6.638;2023-04-19T10:43:43;101549.91;;;18.24;37.07
28344;BME280;15597;50.914;6.638;2023-04-19T10:48:56;101543.41;;;18.33;37.05
28344;BME280;15597;50.914;6.638;2023-04-19T10:51:26;101542.94;;;18.45;37.17
28344;BME280;15597;50.914;6.638;2023-04-19T10:53:58;101530.34;;;18.50;36.71
28344;BME280;15597;50.914;6.638;2023-04-19T11:01:35;101527.41;;;18.58;36.94
28344;BME280;15597;50.914;6.638;2023-04-19T11:04:03;101521.59;;;18.71;36.43
28344;BME280;15597;50.914;6.638;2023-04-19T11:06:28;101517.78;;;18.78;36.28
28344;BME280;15597;50.914;6.638;2023-04-19T11:08:55;101515.59;;;18.88;35.92
28344;BME280;15597;50.914;6.638;2023-04-19T11:11:21;101509.22;;;18.92;36.11
28344;BME280;15597;50.914;6.638;2023-04-19T11:13:47;101509.00;;;18.98;35.84
28344;BME280;15597;50.914;6.638;2023-04-19T11:16:13;101498.13;;;19.04;36.38
28344;BME280;15597;50.914;6.638;2023-04-19T11:18:38;101496.97;;;19.11;35.63
28344;BME280;15597;50.914;6.638;2023-04-19T11:21:04;101499.22;;;19.21;35.30
28344;BME280;15597;50.914;6.638;2023-04-19T11:23:30;101496.31;;;19.27;35.30
28344;BME280;15597;50.914;6.638;2023-04-19T11:25:55;101489.78;;;19.34;35.12
28344;BME280;15597;50.914;6.638;2023-04-19T11:28:21;101490.38;;;19.41;35.12
28344;BME280;15597;50.914;6.638;2023-04-19T11:30:47;101491.09;;;19.45;34.84
28344;BME280;15597;50.914;6.638;2023-04-19T11:33:13;101487.53;;;19.46;34.39
28344;BME280;15597;50.914;6.638;2023-04-19T11:35:39;101474.91;;;19.51;34.30
28344;BME280;15597;50.914;6.638;2023-04-19T11:38:06;101483.53;;;19.56;33.97
28344;BME280;15597;50.914;6.638;2023-04-19T11:40:31;101472.75;;;19.59;33.72
28344;BME280;15597;50.914;6.638;2023-04-19T11:43:02;101481.53;;;19.61;33.60
28344;BME280;15597;50.914;6.638;2023-04-19T11:45:33;101472.34;;;19.68;32.98
28344;BME280;15597;50.914;6.638;2023-04-19T11:48:00;101464.69;;;19.81;33.03
28344;BME280;15597;50.914;6.638;2023-04-19T11:53:20;101458.88;;;19.92;32.98
28344;BME280;15597;50.914;6.638;2023-04-19T11:55:48;101451.13;;;20.07;32.48
28344;BME280;15597;50.914;6.638;2023-04-19T12:00:47;101458.00;;;20.30;32.21
28344;BME280;15597;50.914;6.638;2023-04-19T12:03:13;101460.28;;;20.38;32.40
28344;BME280;15597;50.914;6.638;2023-04-19T12:05:39;101446.75;;;20.42;31.89
28344;BME280;15597;50.914;6.638;2023-04-19T12:08:05;101455.50;;;20.44;31.56
28344;BME280;15597;50.914;6.638;2023-04-19T12:10:35;101458.25;;;20.43;30.71
28344;BME280;15597;50.914;6.638;2023-04-19T12:13:15;101451.38;;;20.39;30.47
28344;BME280;15597;50.914;6.638;2023-04-19T12:15:41;101445.75;;;20.45;30.14
28344;BME280;15597;50.914;6.638;2023-04-19T12:18:07;101436.84;;;20.46;30.51
28344;BME280;15597;50.914;6.638;2023-04-19T12:20:37;101439.41;;;20.48;30.57
28344;BME280;15597;50.914;6.638;2023-04-19T12:23:03;101431.91;;;20.56;30.88
28344;BME280;15597;50.914;6.638;2023-04-19T12:25:30;101439.66;;;20.61;30.33
28344;BME280;15597;50.914;6.638;2023-04-19T12:27:57;101441.69;;;20.73;29.73
28344;BME280;15597;50.914;6.638;2023-04-19T12:30:23;101440.31;;;20.83;29.81
28344;BME280;15597;50.914;6.638;2023-04-19T12:32:48;101444.47;;;20.89;28.88
28344;BME280;15597;50.914;6.638;2023-04-19T12:35:16;101438.44;;;20.85;29.00
28344;BME280;15597;50.914;6.638;2023-04-19T12:37:45;101429.78;;;20.82;29.23
28344;BME280;15597;50.914;6.638;2023-04-19T12:40:11;101430.72;;;20.81;29.25
28344;BME280;15597;50.914;6.638;2023-04-19T12:42:37;101431.56;;;20.81;28.70
28344;BME280;15597;50.914;6.638;2023-04-19T12:45:03;101427.13;;;20.82;29.02
28344;BME280;15597;50.914;6.638;2023-04-19T12:47:29;101430.31;;;20.89;28.94
28344;BME280;15597;50.914;6.638;2023-04-19T12:49:55;101421.84;;;20.98;28.50
28344;BME280;15597;50.914;6.638;2023-04-19T12:52:22;101426.16;;;21.00;28.29
28344;BME280;15597;50.914;6.638;2023-04-19T12:54:48;101425.84;;;21.07;28.26
28344;BME280;15597;50.914;6.638;2023-04-19T12:57:13;101432.78;;;21.09;27.87
28344;BME280;15597;50.914;6.638;2023-04-19T12:59:39;101433.88;;;21.05;28.21
28344;BME280;15597;50.914;6.638;2023-04-19T13:02:05;101423.97;;;21.09;27.64
28344;BME280;15597;50.914;6.638;2023-04-19T13:04:31;101418.31;;;21.15;27.47